Detall de PIREP

Printer-friendly versionPDF version

[2010/11/25 21:35:00]
Flight IATA:CT2102
Pilot Number:026
Company ICAO:CAT
Aircraft Type:DC85/A
PAX:136
Departing Airport: LEVC
Destination Airport: LEBZ
Alternate Airport:LEMG
Online: VATSIM
Route:CLS UN733 CJN UN975 CCS
Flight Level:FL250
No Slew and time accel
No pause
Crash detect
Detect pilot in Cockpit between each 30 and 45 minutes
21:35 Zero fuel Weight: 178582 Lbs, Fuel Weight: 26371 Lbs
21:35 VATSIM:LEVC 252130Z 31006KT CAVOK 10/04 Q1010 NOSIG
21:35 VATSIM:LEBZ 251800Z 36004KT CAVOK 11/08 Q1011
21:36 VOICE CATALONIAN / LEVC HUB ROUTE CT2102
21:45 Parking Brakes off
21:51 Take-off
21:51 Take off Weight: 204128 Lbs
21:51 Wind: 313º @ 005 Knots Heading: 296º
21:51 POS N39º 29´ 28´´ W000º 29´ 12´´
21:51 Gear Up: 182 Knots
21:51 Flaps:2 at 182 Knots
21:52 Flaps:1 at 221 Knots
21:52 Flaps:0 at 232 Knots
21:59 TOC
21:59 Fuel Weight: 22566 Lb
22:06 Wind:331º@014 Knots Heading: 299º Ground Speed: 442 Knots Altitude 24927 ft
22:21 Wind:002º@012 Knots Heading: 256º Ground Speed: 458 Knots Altitude 24934 ft
22:23 TOD
22:23 Fuel Weight: 16516 Lb
22:36 Wind:359º@008 Knots Heading: 182º Ground Speed: 272 Knots Altitude 7621 ft
22:50 Flaps:1 at 191 Knots
22:50 Gear Down: 192 Knots
22:51 Wind:005º@004 Knots Heading: 307º Ground Speed: 178 Knots Altitude 2296 ft
22:51 Flaps:2 at 175 Knots
22:51 Flaps:3 at 167 Knots
22:52 Flaps:4 at 151 Knots
22:52 Flaps:5 at 145 Knots
22:53 TouchDown:Rate -185 ft/min Speed: 123 Knots
22:53 VATSIM:LEBZ 251800Z 36004KT CAVOK 11/08 Q1011
22:53 Land
22:53 Wind:005º@005 Knots
22:53 Heading: 308º
22:53 Flight Duration: 01:02
22:53 Landing Weight: 191981 Lbs
22:53 POS N38º 53´ 25´´ W006º 49´ 11´´
22:57 Parking brakes on
22:57 Block to Block Duration: 01:12
22:57 Final Fuel: 13002 Lbls
22:57 Spent Fuel: 13368 Lbls
22:57 Flight Length: 359 NM
22:57 TOD Land Length: 144 NM

Exportar CSV

Powered by Drupal - Modified by Danger4k